createdAt,value
2023-05-24T00:04:36.385Z,16.50
2023-05-24T00:09:41.253Z,15.00
2023-05-24T00:14:46.392Z,15.25
2023-05-24T00:19:51.271Z,17.75
2023-05-24T00:24:56.036Z,16.00
2023-05-24T00:30:00.979Z,14.75
2023-05-24T00:35:06.030Z,14.00
2023-05-24T00:40:11.540Z,16.25
2023-05-24T00:45:16.610Z,13.75
2023-05-24T00:50:22.070Z,17.25
2023-05-24T00:55:28.265Z,15.00
2023-05-24T01:00:34.260Z,13.00
2023-05-24T01:05:39.290Z,14.25
2023-05-24T01:10:56.910Z,16.00
2023-05-24T01:16:03.310Z,18.00
2023-05-24T01:21:28.440Z,16.50
2023-05-24T01:26:33.399Z,15.75
2023-05-24T01:31:39.178Z,14.50
2023-05-24T01:36:44.235Z,14.25
2023-05-24T01:42:07.895Z,15.75
2023-05-24T01:47:41.331Z,14.25
2023-05-24T01:52:47.492Z,12.75
2023-05-24T01:57:53.170Z,14.25
2023-05-24T02:02:59.378Z,14.00
2023-05-24T02:08:04.338Z,12.00
2023-05-24T02:13:09.752Z,14.75
2023-05-24T02:18:15.638Z,14.50
2023-05-24T02:23:20.423Z,11.00
2023-05-24T02:28:25.483Z,13.00
2023-05-24T02:33:31.289Z,14.75
2023-05-24T02:38:36.323Z,15.00
2023-05-24T02:43:41.447Z,15.00
2023-05-24T02:48:46.497Z,15.00
2023-05-24T02:53:51.466Z,14.00
2023-05-24T02:58:57.018Z,14.00
2023-05-24T03:04:02.442Z,12.25
2023-05-24T03:09:08.363Z,13.00
2023-05-24T03:14:13.300Z,12.75
2023-05-24T03:19:20.320Z,13.00
2023-05-24T03:24:27.543Z,14.00
2023-05-24T03:29:33.013Z,10.75
2023-05-24T03:34:38.172Z,13.50
2023-05-24T03:39:43.634Z,12.75
2023-05-24T03:45:09.136Z,14.00
2023-05-24T03:50:15.736Z,14.25
2023-05-24T03:55:20.580Z,12.00
2023-05-24T04:00:26.496Z,13.00
2023-05-24T04:05:31.608Z,13.25
2023-05-24T04:10:36.886Z,13.50
2023-05-24T04:15:42.091Z,13.00
2023-05-24T04:20:47.971Z,13.00
2023-05-24T04:25:52.492Z,12.75
2023-05-24T04:30:59.063Z,13.75
2023-05-24T04:36:03.789Z,14.00
2023-05-24T04:41:08.486Z,13.00
2023-05-24T04:46:13.088Z,12.00
2023-05-24T04:51:17.994Z,13.00
2023-05-24T04:56:22.769Z,13.00
2023-05-24T05:01:27.978Z,13.75
2023-05-24T05:06:33.745Z,11.50
2023-05-24T05:11:39.003Z,14.00
2023-05-24T05:16:44.404Z,13.00
2023-05-24T05:21:49.625Z,13.50
2023-05-24T05:26:54.672Z,12.50
2023-05-24T05:31:59.732Z,14.25
2023-05-24T05:37:04.746Z,14.75
2023-05-24T05:42:09.840Z,13.50
2023-05-24T05:47:14.990Z,14.25
2023-05-24T05:52:20.009Z,13.50
2023-05-24T05:57:25.670Z,14.75
2023-05-24T06:02:30.548Z,12.25
2023-05-24T06:07:37.091Z,12.25
2023-05-24T06:12:42.070Z,12.25
2023-05-24T06:17:49.406Z,13.25
2023-05-24T06:22:54.481Z,12.00
2023-05-24T06:27:59.660Z,13.00
2023-05-24T06:33:05.657Z,12.25
2023-05-24T06:38:10.762Z,14.00
2023-05-24T06:43:15.729Z,14.25
2023-05-24T06:48:20.790Z,10.50
2023-05-24T06:53:25.800Z,12.50
2023-05-24T06:58:30.860Z,12.00
2023-05-24T07:03:35.643Z,12.25
2023-05-24T07:08:40.630Z,13.00
2023-05-24T07:13:45.659Z,11.75
2023-05-24T07:18:50.568Z,13.50
2023-05-24T07:23:55.643Z,13.75
2023-05-24T07:29:00.423Z,14.25
2023-05-24T07:34:05.599Z,14.25
2023-05-24T07:39:17.050Z,14.75
2023-05-24T07:44:22.022Z,13.75
2023-05-24T07:49:26.860Z,13.00
2023-05-24T07:54:31.922Z,14.00
2023-05-24T07:59:36.521Z,14.50
2023-05-24T08:04:44.695Z,14.75
2023-05-24T08:09:49.659Z,13.50
2023-05-24T08:14:55.241Z,13.00
2023-05-24T08:20:00.351Z,14.75
2023-05-24T08:25:05.488Z,13.50
2023-05-24T08:30:10.654Z,15.00
2023-05-24T08:35:20.138Z,14.00
2023-05-24T08:40:27.860Z,13.50
2023-05-24T08:45:33.211Z,13.75
2023-05-24T08:50:37.985Z,15.75
2023-05-24T08:55:44.605Z,14.75
2023-05-24T09:00:49.840Z,14.50
2023-05-24T09:05:55.244Z,13.50
2023-05-24T09:11:01.534Z,17.00
2023-05-24T09:16:07.874Z,16.00
2023-05-24T09:21:13.534Z,17.00
2023-05-24T09:26:19.455Z,14.75
2023-05-24T09:31:34.080Z,15.50
2023-05-24T09:36:43.280Z,16.00
2023-05-24T09:41:57.032Z,17.75
2023-05-24T09:47:08.287Z,17.25
2023-05-24T09:52:16.153Z,17.50
2023-05-24T09:57:24.209Z,17.75
2023-05-24T10:02:35.485Z,16.25
2023-05-24T10:07:46.438Z,19.00
2023-05-24T10:12:52.444Z,19.00
2023-05-24T10:17:58.254Z,18.00
2023-05-24T10:23:05.740Z,17.00
2023-05-24T10:28:12.224Z,18.50
2023-05-24T10:33:18.266Z,18.00
2023-05-24T10:38:25.125Z,16.00
2023-05-24T10:43:29.901Z,18.00
2023-05-24T10:48:37.608Z,20.25
2023-05-24T10:53:42.808Z,19.00
2023-05-24T10:59:00.573Z,19.50
2023-05-24T11:04:19.051Z,19.50
2023-05-24T11:09:24.299Z,21.25
2023-05-24T11:14:32.754Z,21.00
2023-05-24T11:19:57.865Z,20.75
2023-05-24T11:25:07.352Z,21.75
2023-05-24T11:30:14.123Z,21.75
2023-05-24T11:35:20.595Z,21.75
2023-05-24T11:40:26.507Z,21.25
2023-05-24T11:45:31.503Z,19.00
2023-05-24T11:50:48.740Z,24.50
2023-05-24T11:55:56.007Z,27.00
2023-05-24T12:01:01.182Z,26.00
2023-05-24T12:06:06.347Z,23.75
2023-05-24T12:11:11.518Z,26.50
2023-05-24T12:16:17.870Z,25.25
2023-05-24T12:21:23.039Z,26.00
2023-05-24T12:26:28.300Z,24.75
2023-05-24T12:31:33.514Z,23.50
2023-05-24T12:36:38.439Z,23.00
2023-05-24T12:41:43.131Z,24.50
2023-05-24T12:46:48.029Z,26.75
2023-05-24T12:51:53.492Z,32.00
2023-05-24T12:56:58.503Z,32.50
2023-05-24T13:02:03.398Z,31.50
2023-05-24T13:07:08.090Z,31.00
2023-05-24T13:12:14.944Z,31.00
2023-05-24T13:17:19.965Z,33.00
2023-05-24T13:22:24.600Z,33.50
2023-05-24T13:27:29.323Z,38.00
2023-05-24T13:32:34.217Z,35.50
2023-05-24T13:37:39.317Z,39.25
2023-05-24T13:42:46.060Z,43.50
2023-05-24T13:47:50.179Z,42.75
2023-05-24T13:52:54.508Z,44.00
2023-05-24T13:57:59.119Z,45.00
2023-05-24T14:03:05.469Z,47.25
2023-05-24T14:08:10.416Z,51.00
2023-05-24T14:13:34.221Z,52.25
2023-05-24T14:18:39.668Z,53.25
2023-05-24T14:23:44.618Z,53.50
2023-05-24T14:28:49.261Z,56.25
2023-05-24T14:33:54.247Z,51.75
2023-05-24T14:38:58.798Z,52.50
2023-05-24T14:44:03.184Z,56.50
2023-05-24T14:49:07.801Z,52.25
2023-05-24T14:54:13.285Z,50.25
2023-05-24T14:59:17.778Z,57.33
2023-05-24T15:04:22.654Z,62.33
2023-05-24T15:09:28.344Z,58.33
2023-05-24T15:14:32.882Z,58.33
2023-05-24T15:19:37.536Z,61.00
2023-05-24T15:24:42.238Z,58.33
2023-05-24T15:29:47.007Z,66.00
2023-05-24T15:34:52.562Z,65.00
2023-05-24T15:39:57.174Z,67.33
2023-05-24T15:45:01.572Z,68.67
2023-05-24T15:50:06.017Z,72.33
2023-05-24T15:55:10.870Z,67.00
2023-05-24T16:00:15.373Z,74.33
2023-05-24T16:05:21.210Z,73.67
2023-05-24T16:10:25.923Z,74.33
2023-05-24T16:15:31.517Z,74.33
2023-05-24T16:20:36.856Z,79.00
2023-05-24T16:25:41.498Z,68.67
2023-05-24T16:30:46.475Z,81.33
2023-05-24T16:35:56.847Z,80.33
2023-05-24T16:41:01.324Z,83.33
2023-05-24T16:46:05.902Z,83.33
2023-05-24T16:51:10.435Z,85.67
2023-05-24T16:56:14.806Z,85.67
2023-05-24T17:01:19.249Z,88.25
2023-05-24T17:06:24.012Z,84.00
2023-05-24T17:11:28.654Z,86.50
2023-05-24T17:16:33.201Z,87.67
2023-05-24T17:21:38.219Z,85.75
2023-05-24T17:26:43.899Z,85.00
2023-05-24T17:31:48.798Z,95.00
2023-05-24T17:36:53.617Z,91.50
2023-05-24T17:41:58.003Z,88.75
2023-05-24T17:47:03.455Z,94.00
2023-05-24T17:52:08.127Z,101.50
2023-05-24T17:57:12.759Z,100.50
2023-05-24T18:02:17.489Z,98.50
2023-05-24T18:07:21.918Z,102.25
2023-05-24T18:12:26.866Z,101.00
2023-05-24T18:17:31.638Z,101.50
2023-05-24T18:22:35.946Z,105.25
2023-05-24T18:27:40.273Z,106.00
2023-05-24T18:33:02.858Z,98.25
2023-05-24T18:38:09.457Z,101.00
2023-05-24T18:43:14.449Z,99.25
2023-05-24T18:48:19.149Z,98.00
2023-05-24T18:53:23.693Z,98.50
2023-05-24T18:58:28.143Z,93.50
2023-05-24T19:03:32.668Z,100.00
2023-05-24T19:08:37.452Z,94.25
2023-05-24T19:13:42.165Z,95.50
2023-05-24T19:18:47.110Z,90.00
2023-05-24T19:23:51.722Z,85.00
2023-05-24T19:28:56.230Z,85.50
2023-05-24T19:34:01.279Z,80.33
2023-05-24T19:39:06.133Z,78.67
2023-05-24T19:44:10.623Z,82.33
2023-05-24T19:49:14.932Z,78.67
2023-05-24T19:54:19.373Z,79.33
2023-05-24T19:59:23.762Z,77.33
2023-05-24T20:04:28.257Z,70.67
2023-05-24T20:09:32.941Z,71.67
2023-05-24T20:14:37.417Z,74.67
2023-05-24T20:19:41.773Z,73.00
2023-05-24T20:24:46.211Z,72.00
2023-05-24T20:29:50.504Z,70.33
2023-05-24T20:34:55.014Z,71.33
2023-05-24T20:39:59.668Z,67.33
2023-05-24T20:45:04.932Z,66.67
2023-05-24T20:50:09.446Z,64.67
2023-05-24T20:55:13.831Z,65.67
2023-05-24T21:00:18.256Z,63.00
2023-05-24T21:05:22.670Z,61.00
2023-05-24T21:10:29.274Z,60.67
2023-05-24T21:15:33.757Z,60.33
2023-05-24T21:20:38.020Z,59.33
2023-05-24T21:25:42.639Z,56.67
2023-05-24T21:30:47.284Z,56.67
2023-05-24T21:35:51.796Z,57.33
2023-05-24T21:40:56.201Z,54.00
2023-05-24T21:46:00.600Z,54.00
2023-05-24T21:51:05.283Z,55.00
2023-05-24T21:56:09.713Z,53.00
2023-05-24T22:01:14.215Z,56.00
2023-05-24T22:06:18.488Z,57.00
2023-05-24T22:11:23.106Z,52.00
2023-05-24T22:16:27.479Z,51.00
2023-05-24T22:21:34.663Z,48.25
2023-05-24T22:26:39.538Z,51.25
2023-05-24T22:31:43.696Z,47.75
2023-05-24T22:36:48.032Z,50.75
2023-05-24T22:41:53.620Z,50.00
2023-05-24T22:46:58.228Z,45.00
2023-05-24T22:52:02.600Z,46.00
2023-05-24T22:57:07.572Z,48.50
2023-05-24T23:02:12.444Z,45.50
2023-05-24T23:07:17.056Z,45.25
2023-05-24T23:12:22.428Z,34.50
2023-05-24T23:17:27.791Z,43.50
2023-05-24T23:22:32.281Z,35.50
2023-05-24T23:27:36.852Z,34.00
2023-05-24T23:32:41.197Z,34.25
2023-05-24T23:37:45.754Z,32.75
2023-05-24T23:42:50.929Z,31.25
2023-05-24T23:47:55.587Z,32.75
2023-05-24T23:52:59.942Z,31.75
2023-05-24T23:58:04.947Z,30.00
